createdAt,value
2023-04-09T00:01:08.974Z,17.83
2023-04-09T00:04:11.665Z,18.70
2023-04-09T00:07:14.235Z,17.17
2023-04-09T00:10:17.363Z,18.70
2023-04-09T00:13:28.244Z,23.10
2023-04-09T00:16:38.476Z,20.23
2023-04-09T00:19:41.248Z,19.80
2023-04-09T00:22:44.333Z,19.30
2023-04-09T00:25:46.822Z,19.25
2023-04-09T00:28:49.588Z,19.80
2023-04-09T00:31:52.270Z,22.52
2023-04-09T00:34:54.771Z,21.98
2023-04-09T00:37:57.280Z,19.67
2023-04-09T00:40:59.990Z,20.80
2023-04-09T00:44:02.529Z,21.83
2023-04-09T00:47:05.388Z,21.70
2023-04-09T00:50:08.404Z,21.20
2023-04-09T00:53:12.421Z,43.93
2023-04-09T00:56:17.374Z,44.35
2023-04-09T00:59:20.835Z,32.80
2023-04-09T01:02:23.509Z,30.33
2023-04-09T01:05:34.398Z,25.55
2023-04-09T01:08:59.528Z,24.70
2023-04-09T01:12:09.477Z,18.88
2023-04-09T01:15:18.368Z,19.67
2023-04-09T01:18:43.057Z,19.73
2023-04-09T01:21:46.613Z,22.80
2023-04-09T01:25:33.814Z,17.20
2023-04-09T01:28:42.885Z,18.25
2023-04-09T01:31:46.664Z,17.98
2023-04-09T01:34:50.103Z,18.55
2023-04-09T01:37:54.505Z,16.92
2023-04-09T01:40:58.057Z,19.43
2023-04-09T01:44:03.318Z,20.20
2023-04-09T01:47:07.226Z,22.67
2023-04-09T01:50:10.409Z,19.58
2023-04-09T01:53:13.575Z,19.02
2023-04-09T01:56:17.395Z,18.40
2023-04-09T01:59:19.908Z,18.30
2023-04-09T02:02:49.006Z,17.25
2023-04-09T02:06:17.386Z,19.17
2023-04-09T02:09:21.712Z,17.30
2023-04-09T02:12:25.509Z,18.43
2023-04-09T02:15:29.199Z,18.90
2023-04-09T02:18:32.767Z,18.83
2023-04-09T02:21:36.351Z,19.83
2023-04-09T02:24:40.561Z,19.00
2023-04-09T02:27:43.127Z,20.63
2023-04-09T02:30:46.282Z,18.27
2023-04-09T02:33:48.852Z,20.23
2023-04-09T02:36:51.429Z,19.48
2023-04-09T02:39:53.909Z,18.52
2023-04-09T02:42:56.536Z,19.33
2023-04-09T02:45:59.124Z,20.67
2023-04-09T02:49:02.192Z,16.75
2023-04-09T02:52:05.321Z,19.27
2023-04-09T02:55:08.455Z,17.55
2023-04-09T02:58:11.005Z,20.77
2023-04-09T03:01:13.810Z,17.92
2023-04-09T03:04:17.496Z,18.80
2023-04-09T03:07:20.222Z,19.30
2023-04-09T03:10:22.786Z,17.73
2023-04-09T03:13:27.423Z,21.63
2023-04-09T03:16:29.955Z,18.35
2023-04-09T03:19:32.656Z,19.98
2023-04-09T03:22:39.655Z,19.13
2023-04-09T03:26:06.292Z,19.80
2023-04-09T03:29:19.718Z,17.73
2023-04-09T03:32:22.823Z,20.42
2023-04-09T03:35:25.816Z,19.63
2023-04-09T03:38:34.174Z,19.85
2023-04-09T03:41:42.220Z,21.90
2023-04-09T03:44:49.282Z,18.40
2023-04-09T03:48:01.718Z,20.00
2023-04-09T03:51:04.638Z,19.50
2023-04-09T03:54:14.603Z,18.23
2023-04-09T03:57:17.715Z,17.77
2023-04-09T04:00:22.532Z,20.23
2023-04-09T04:03:47.399Z,17.17
2023-04-09T04:06:57.636Z,19.83
2023-04-09T04:10:06.268Z,21.92
2023-04-09T04:13:11.134Z,19.02
2023-04-09T04:16:26.246Z,18.83
2023-04-09T04:19:30.871Z,18.10
2023-04-09T04:22:35.013Z,18.35
2023-04-09T04:25:42.717Z,20.60
2023-04-09T04:28:48.847Z,19.52
2023-04-09T04:32:02.818Z,24.83
2023-04-09T04:35:11.370Z,68.22
2023-04-09T04:38:14.891Z,31.83
2023-04-09T04:41:17.697Z,24.55
2023-04-09T04:44:27.500Z,19.17
2023-04-09T04:47:39.421Z,18.70
2023-04-09T04:50:42.032Z,19.42
2023-04-09T04:53:46.011Z,20.38
2023-04-09T04:56:49.852Z,19.45
2023-04-09T05:00:05.174Z,19.17
2023-04-09T05:03:07.919Z,17.73
2023-04-09T05:06:29.834Z,19.08
2023-04-09T05:09:33.865Z,18.40
2023-04-09T05:12:40.584Z,19.52
2023-04-09T05:15:44.695Z,19.15
2023-04-09T05:18:48.009Z,19.50
2023-04-09T05:21:50.643Z,16.67
2023-04-09T05:24:58.622Z,18.25
2023-04-09T05:28:01.809Z,17.38
2023-04-09T05:31:11.993Z,19.55
2023-04-09T05:34:20.658Z,19.33
2023-04-09T05:37:27.153Z,17.20
2023-04-09T05:40:30.468Z,18.40
2023-04-09T05:43:33.816Z,16.05
2023-04-09T05:46:36.431Z,16.70
2023-04-09T05:49:39.728Z,15.77
2023-04-09T05:52:46.769Z,17.83
2023-04-09T05:55:50.773Z,30.70
2023-04-09T05:58:55.999Z,20.40
2023-04-09T06:01:58.862Z,18.65
2023-04-09T06:05:01.667Z,18.87
2023-04-09T06:08:04.401Z,17.50
2023-04-09T06:11:10.590Z,17.55
2023-04-09T06:14:16.536Z,17.50
2023-04-09T06:17:19.181Z,18.08
2023-04-09T06:20:21.954Z,16.63
2023-04-09T06:23:24.390Z,13.43
2023-04-09T06:26:27.166Z,15.48
2023-04-09T06:29:29.783Z,16.45
2023-04-09T06:32:37.718Z,16.92
2023-04-09T06:35:46.842Z,16.90
2023-04-09T06:38:50.077Z,17.50
2023-04-09T06:41:52.890Z,15.05
2023-04-09T06:45:13.010Z,14.23
2023-04-09T06:48:15.509Z,13.48
2023-04-09T06:51:18.027Z,13.43
2023-04-09T06:54:20.871Z,14.00
2023-04-09T06:57:23.381Z,13.18
2023-04-09T07:00:26.190Z,13.25
2023-04-09T07:03:29.900Z,13.13
2023-04-09T07:06:32.690Z,12.17
2023-04-09T07:09:35.152Z,11.77
2023-04-09T07:12:37.760Z,14.73
2023-04-09T07:15:41.708Z,15.80
2023-04-09T07:18:45.478Z,17.05
2023-04-09T07:21:47.963Z,14.13
2023-04-09T07:24:54.393Z,13.10
2023-04-09T07:27:57.230Z,16.23
2023-04-09T07:31:05.439Z,16.25
2023-04-09T07:34:08.192Z,15.13
2023-04-09T07:37:11.375Z,14.50
2023-04-09T07:40:15.157Z,14.90
2023-04-09T07:43:18.436Z,18.02
2023-04-09T07:46:22.266Z,17.05
2023-04-09T07:49:24.932Z,15.32
2023-04-09T07:52:27.688Z,15.43
2023-04-09T07:55:30.873Z,14.20
2023-04-09T07:58:33.498Z,15.80
2023-04-09T08:01:36.475Z,15.25
2023-04-09T08:04:39.194Z,10.75
2023-04-09T08:07:42.054Z,16.30
2023-04-09T08:10:45.753Z,13.20
2023-04-09T08:13:48.382Z,11.55
2023-04-09T08:16:51.488Z,12.82
2023-04-09T08:19:54.125Z,12.75
2023-04-09T08:22:57.720Z,11.97
2023-04-09T08:26:00.344Z,11.48
2023-04-09T08:29:02.901Z,13.25
2023-04-09T08:32:06.223Z,13.00
2023-04-09T08:35:09.465Z,12.27
2023-04-09T08:38:12.007Z,15.20
2023-04-09T08:41:22.364Z,16.20
2023-04-09T08:44:29.454Z,15.18
2023-04-09T08:47:34.270Z,17.52
2023-04-09T08:50:37.309Z,14.95
2023-04-09T08:53:42.836Z,13.43
2023-04-09T08:56:45.577Z,13.02
2023-04-09T08:59:48.083Z,12.52
2023-04-09T09:03:07.034Z,12.75
2023-04-09T09:06:22.010Z,11.95
2023-04-09T09:09:24.985Z,13.67
2023-04-09T09:12:41.908Z,10.50
2023-04-09T09:15:46.308Z,12.43
2023-04-09T09:18:49.195Z,12.98
2023-04-09T09:21:59.155Z,11.05
2023-04-09T09:25:01.730Z,11.23
2023-04-09T09:28:12.150Z,11.18
2023-04-09T09:31:16.094Z,11.93
2023-04-09T09:34:21.840Z,11.82
2023-04-09T09:37:28.263Z,11.27
2023-04-09T09:40:30.926Z,11.70
2023-04-09T09:43:42.591Z,9.65
2023-04-09T09:46:45.698Z,13.38
2023-04-09T09:49:50.334Z,11.00
2023-04-09T09:53:03.279Z,9.45
2023-04-09T09:56:06.965Z,10.77
2023-04-09T09:59:23.912Z,9.90
2023-04-09T10:02:31.416Z,10.43
2023-04-09T10:05:39.254Z,10.48
2023-04-09T10:08:43.253Z,10.88
2023-04-09T10:11:48.118Z,11.17
2023-04-09T10:14:53.048Z,10.75
2023-04-09T10:17:56.230Z,9.43
2023-04-09T10:21:04.058Z,9.02
2023-04-09T10:24:08.159Z,9.93
2023-04-09T10:27:17.099Z,10.13
2023-04-09T10:30:36.746Z,10.80
2023-04-09T10:33:39.690Z,9.20
2023-04-09T10:37:00.227Z,10.07
2023-04-09T10:40:04.075Z,10.65
2023-04-09T10:43:09.826Z,9.93
2023-04-09T10:46:36.525Z,9.65
2023-04-09T10:49:42.698Z,9.88
2023-04-09T10:52:45.662Z,10.13
2023-04-09T10:55:53.242Z,8.65
2023-04-09T10:58:55.869Z,10.87
2023-04-09T11:01:58.546Z,10.63
2023-04-09T11:05:28.295Z,12.10
2023-04-09T11:08:32.779Z,10.55
2023-04-09T11:11:36.557Z,9.73
2023-04-09T11:14:39.553Z,9.83
2023-04-09T11:17:43.297Z,17.23
2023-04-09T11:20:46.336Z,10.25
2023-04-09T11:23:53.069Z,9.27
2023-04-09T11:26:56.796Z,11.82
2023-04-09T11:29:59.313Z,9.73
2023-04-09T11:33:02.438Z,8.75
2023-04-09T11:36:06.865Z,11.05
2023-04-09T11:39:09.472Z,10.30
2023-04-09T11:42:16.456Z,10.38
2023-04-09T11:45:21.265Z,9.40
2023-04-09T11:48:24.953Z,9.40
2023-04-09T11:51:30.866Z,11.23
2023-04-09T11:54:34.137Z,11.55
2023-04-09T11:57:47.373Z,10.65
2023-04-09T12:00:54.318Z,10.13
2023-04-09T12:03:57.083Z,9.98
2023-04-09T12:06:59.726Z,9.95
2023-04-09T12:10:10.269Z,12.68
2023-04-09T12:13:13.786Z,10.95
2023-04-09T12:16:20.733Z,10.17
2023-04-09T12:19:25.536Z,11.02
2023-04-09T12:22:28.480Z,10.43
2023-04-09T12:25:32.815Z,10.27
2023-04-09T12:28:35.521Z,10.43
2023-04-09T12:31:38.150Z,11.17
2023-04-09T12:34:41.486Z,11.93
2023-04-09T12:37:44.803Z,11.15
2023-04-09T12:40:48.720Z,10.75
2023-04-09T12:43:51.441Z,11.68
2023-04-09T12:46:58.914Z,11.33
2023-04-09T12:50:01.477Z,13.13
2023-04-09T12:53:03.974Z,11.75
2023-04-09T12:56:07.471Z,13.27
2023-04-09T12:59:09.942Z,10.93
2023-04-09T13:02:13.145Z,9.47
2023-04-09T13:05:16.852Z,9.95
2023-04-09T13:08:19.532Z,12.75
2023-04-09T13:11:22.206Z,8.93
2023-04-09T13:14:24.714Z,10.85
2023-04-09T13:17:27.281Z,9.30
2023-04-09T13:20:30.788Z,10.65
2023-04-09T13:23:33.301Z,13.05
2023-04-09T13:26:35.996Z,12.55
2023-04-09T13:29:38.763Z,9.48
2023-04-09T13:32:42.300Z,8.30
2023-04-09T13:35:45.111Z,10.20
2023-04-09T13:38:48.978Z,9.05
2023-04-09T13:41:51.537Z,8.55
2023-04-09T13:44:55.829Z,8.32
2023-04-09T13:47:58.409Z,9.87
2023-04-09T13:51:01.069Z,9.45
2023-04-09T13:54:05.776Z,9.38
2023-04-09T13:57:09.038Z,8.98
2023-04-09T14:00:12.130Z,9.52
2023-04-09T14:03:14.937Z,9.50
2023-04-09T14:06:17.753Z,10.23
2023-04-09T14:09:20.382Z,8.57
2023-04-09T14:12:23.072Z,9.95
2023-04-09T14:15:25.667Z,10.38
2023-04-09T14:18:28.263Z,11.00
2023-04-09T14:21:30.769Z,8.88
2023-04-09T14:24:40.018Z,10.23
2023-04-09T14:27:42.854Z,10.63
2023-04-09T14:30:45.738Z,10.40
2023-04-09T14:33:48.848Z,12.00
2023-04-09T14:36:51.416Z,9.15
2023-04-09T14:39:53.940Z,9.15
2023-04-09T14:42:56.549Z,9.55
2023-04-09T14:45:58.974Z,10.20
2023-04-09T14:49:01.679Z,10.23
2023-04-09T14:52:04.308Z,10.20
2023-04-09T14:55:12.223Z,8.82
2023-04-09T14:58:15.913Z,11.05
2023-04-09T15:01:18.524Z,10.57
2023-04-09T15:04:22.164Z,11.47
2023-04-09T15:07:25.310Z,9.48
2023-04-09T15:10:28.315Z,11.82
2023-04-09T15:13:31.108Z,9.35
2023-04-09T15:16:37.392Z,11.15
2023-04-09T15:19:40.389Z,11.33
2023-04-09T15:22:42.896Z,10.45
2023-04-09T15:25:48.213Z,10.02
2023-04-09T15:28:51.458Z,11.73
2023-04-09T15:31:54.770Z,11.55
2023-04-09T15:34:57.805Z,18.93
2023-04-09T15:38:00.633Z,37.00
2023-04-09T15:41:05.292Z,42.70
2023-04-09T15:44:08.733Z,43.95
2023-04-09T15:47:11.285Z,16.40
2023-04-09T15:50:14.796Z,11.33
2023-04-09T15:53:17.286Z,15.38
2023-04-09T15:56:20.347Z,15.60
2023-04-09T15:59:22.910Z,13.05
2023-04-09T16:02:26.643Z,11.85
2023-04-09T16:05:29.317Z,13.70
2023-04-09T16:08:32.703Z,12.63
2023-04-09T16:11:36.416Z,13.13
2023-04-09T16:14:40.385Z,12.65
2023-04-09T16:17:43.027Z,12.00
2023-04-09T16:20:45.598Z,11.20
2023-04-09T16:23:48.211Z,12.23
2023-04-09T16:26:50.687Z,14.13
2023-04-09T16:29:53.139Z,13.93
2023-04-09T16:32:55.759Z,15.43
2023-04-09T16:35:58.454Z,16.77
2023-04-09T16:39:01.717Z,15.27
2023-04-09T16:42:04.366Z,17.08
2023-04-09T16:45:07.362Z,15.48
2023-04-09T16:48:12.552Z,11.82
2023-04-09T16:51:15.567Z,14.63
2023-04-09T16:54:18.034Z,15.43
2023-04-09T16:57:21.721Z,12.90
2023-04-09T17:00:24.497Z,14.95
2023-04-09T17:03:27.127Z,13.20
2023-04-09T17:06:29.798Z,12.23
2023-04-09T17:09:32.257Z,16.35
2023-04-09T17:12:34.805Z,13.38
2023-04-09T17:15:37.732Z,15.52
2023-04-09T17:18:40.379Z,14.40
2023-04-09T17:21:42.911Z,15.10
2023-04-09T17:24:45.570Z,15.70
2023-04-09T17:27:48.119Z,15.13
2023-04-09T17:30:50.861Z,15.60
2023-04-09T17:33:53.587Z,29.85
2023-04-09T17:37:00.110Z,24.47
2023-04-09T17:40:03.028Z,24.08
2023-04-09T17:43:07.780Z,19.55
2023-04-09T17:46:11.591Z,20.58
2023-04-09T17:49:14.295Z,18.05
2023-04-09T17:52:16.781Z,16.33
2023-04-09T17:55:19.332Z,19.67
2023-04-09T17:58:22.575Z,21.75
2023-04-09T18:01:25.128Z,21.67
2023-04-09T18:04:28.005Z,21.10
2023-04-09T18:07:33.931Z,17.83
2023-04-09T18:10:37.074Z,19.65
2023-04-09T18:13:39.684Z,20.83
2023-04-09T18:16:42.327Z,18.77
2023-04-09T18:19:44.892Z,20.50
2023-04-09T18:22:47.802Z,20.20
2023-04-09T18:25:50.577Z,20.58
2023-04-09T18:28:53.460Z,23.08
2023-04-09T18:31:57.430Z,21.63
2023-04-09T18:34:59.994Z,23.48
2023-04-09T18:38:02.580Z,22.23
2023-04-09T18:41:05.985Z,23.42
2023-04-09T18:44:08.605Z,26.35
2023-04-09T18:47:11.509Z,26.42
2023-04-09T18:50:15.680Z,24.73
2023-04-09T18:53:18.388Z,20.77
2023-04-09T18:56:21.247Z,22.92
2023-04-09T18:59:24.173Z,27.73
2023-04-09T19:02:26.861Z,31.50
2023-04-09T19:05:33.206Z,33.13
2023-04-09T19:08:38.425Z,30.37
2023-04-09T19:11:41.112Z,30.60
2023-04-09T19:14:43.779Z,28.50
2023-04-09T19:17:46.582Z,31.05
2023-04-09T19:20:49.244Z,34.28
2023-04-09T19:23:51.727Z,36.43
2023-04-09T19:26:55.181Z,36.08
2023-04-09T19:29:59.944Z,28.40
2023-04-09T19:33:02.542Z,34.08
2023-04-09T19:36:07.870Z,33.42
2023-04-09T19:39:11.202Z,32.73
2023-04-09T19:42:13.679Z,37.33
2023-04-09T19:45:16.228Z,31.58
2023-04-09T19:48:18.812Z,32.13
2023-04-09T19:51:22.054Z,32.30
2023-04-09T19:54:24.551Z,30.53
2023-04-09T19:57:27.151Z,31.08
2023-04-09T20:00:29.691Z,27.85
2023-04-09T20:03:32.939Z,34.15
2023-04-09T20:06:35.609Z,34.85
2023-04-09T20:09:41.392Z,30.17
2023-04-09T20:12:47.544Z,29.65
2023-04-09T20:15:50.232Z,33.08
2023-04-09T20:18:53.050Z,28.85
2023-04-09T20:21:56.193Z,33.05
2023-04-09T20:24:59.976Z,31.77
2023-04-09T20:28:03.802Z,33.15
2023-04-09T20:31:06.425Z,29.10
2023-04-09T20:34:08.885Z,30.05
2023-04-09T20:37:11.602Z,34.55
2023-04-09T20:40:14.669Z,29.23
2023-04-09T20:43:25.133Z,29.63
2023-04-09T20:46:27.705Z,35.35
2023-04-09T20:49:30.359Z,32.20
2023-04-09T20:52:32.872Z,30.65
2023-04-09T20:55:35.741Z,34.60
2023-04-09T20:58:39.062Z,29.33
2023-04-09T21:01:41.671Z,34.58
2023-04-09T21:04:44.363Z,31.98
2023-04-09T21:07:46.857Z,31.02
2023-04-09T21:10:49.342Z,33.43
2023-04-09T21:13:55.149Z,32.80
2023-04-09T21:16:58.401Z,31.52
2023-04-09T21:20:01.041Z,31.95
2023-04-09T21:23:03.674Z,29.58
2023-04-09T21:26:06.390Z,33.33
2023-04-09T21:29:09.050Z,31.23
2023-04-09T21:32:12.001Z,32.30
2023-04-09T21:35:14.501Z,31.60
2023-04-09T21:38:16.969Z,33.63
2023-04-09T21:41:19.809Z,39.77
2023-04-09T21:44:22.729Z,38.25
2023-04-09T21:47:26.531Z,50.45
2023-04-09T21:50:32.180Z,49.88
2023-04-09T21:53:34.639Z,44.60
2023-04-09T21:56:39.062Z,41.10
2023-04-09T21:59:41.822Z,43.08
2023-04-09T22:02:53.272Z,35.15
2023-04-09T22:05:56.869Z,41.05
2023-04-09T22:08:59.848Z,41.10
2023-04-09T22:12:03.214Z,39.27
2023-04-09T22:15:06.457Z,36.30
2023-04-09T22:18:08.912Z,39.63
2023-04-09T22:21:16.074Z,36.45
2023-04-09T22:24:19.372Z,37.67
2023-04-09T22:27:21.872Z,33.87
2023-04-09T22:30:24.630Z,35.63
2023-04-09T22:33:27.407Z,39.42
2023-04-09T22:36:29.975Z,40.78
2023-04-09T22:39:33.672Z,39.53
2023-04-09T22:42:36.524Z,34.03
2023-04-09T22:45:39.170Z,37.47
2023-04-09T22:48:44.977Z,40.78
2023-04-09T22:51:48.514Z,35.67
2023-04-09T22:54:51.534Z,33.85
2023-04-09T22:57:55.308Z,32.83
2023-04-09T23:00:58.247Z,35.55
2023-04-09T23:04:01.599Z,29.23
2023-04-09T23:07:04.100Z,31.90
2023-04-09T23:10:07.228Z,37.33
2023-04-09T23:13:13.544Z,32.37
2023-04-09T23:16:16.279Z,27.20
2023-04-09T23:19:18.856Z,26.73
2023-04-09T23:22:21.774Z,30.10
2023-04-09T23:25:24.332Z,29.77
2023-04-09T23:28:27.010Z,28.23
2023-04-09T23:31:29.641Z,27.40
2023-04-09T23:34:32.606Z,30.27
2023-04-09T23:37:35.151Z,24.50
2023-04-09T23:40:37.732Z,28.77
2023-04-09T23:43:41.314Z,29.58
2023-04-09T23:46:43.803Z,35.55
2023-04-09T23:49:46.823Z,33.80
2023-04-09T23:52:50.873Z,32.70
2023-04-09T23:55:53.414Z,30.20
2023-04-09T23:58:56.380Z,29.23
